Time;durP1;ratioP1;P1;durP2;ratioP2;P2;SDS_P1;SDS_P2;PMS_P1;PMS_P2;Temp;Humidity;BMP_temperature;BMP_pressure;BME280_temperature;BME280_humidity;BME280_pressure;Samples;Min_cycle;Max_cycle;Signal;HPM_P1;HPM_P2
2021/01/19 00:00:10;;;;;;;5.80;3.40;;;2.40;83.20;;;;;;5036963;28;20025;-65
2021/01/19 00:02:36;;;;;;;8.35;3.22;;;2.40;83.30;;;;;;5027196;28;20038;-65
2021/01/19 00:05:01;;;;;;;5.95;3.25;;;2.50;83.40;;;;;;5007103;28;20600;-64
2021/01/19 00:07:28;;;;;;;7.78;3.10;;;2.50;83.40;;;;;;5036511;28;20392;-65
2021/01/19 00:09:54;;;;;;;4.50;3.13;;;2.50;83.30;;;;;;5019468;28;20021;-64
2021/01/19 00:12:19;;;;;;;5.68;3.00;;;2.50;83.20;;;;;;5031075;28;20036;-65
2021/01/19 00:14:45;;;;;;;4.25;2.85;;;2.50;83.20;;;;;;5036403;28;20032;-64
2021/01/19 00:17:11;;;;;;;7.05;3.22;;;2.50;83.10;;;;;;5019651;28;20026;-65
2021/01/19 00:19:37;;;;;;;4.97;3.03;;;2.50;83.20;;;;;;4999729;28;20070;-64
2021/01/19 00:22:02;;;;;;;3.88;2.78;;;2.50;83.20;;;;;;5016848;28;20030;-65
2021/01/19 00:24:28;;;;;;;7.00;2.90;;;2.50;83.20;;;;;;5017580;28;20026;-65
2021/01/19 00:26:53;;;;;;;4.97;2.90;;;2.50;83.30;;;;;;5018079;28;20081;-64
2021/01/19 00:29:19;;;;;;;5.97;2.65;;;2.50;83.30;;;;;;5017493;28;20034;-64
2021/01/19 00:31:45;;;;;;;6.57;2.70;;;2.50;83.10;;;;;;5028843;28;20056;-65
2021/01/19 00:34:10;;;;;;;4.03;2.25;;;2.50;83.00;;;;;;5018906;28;20083;-65
2021/01/19 00:36:36;;;;;;;3.58;2.20;;;2.50;83.10;;;;;;5036275;28;20029;-65
2021/01/19 00:39:01;;;;;;;6.68;2.40;;;2.50;83.20;;;;;;5056742;28;20023;-64
2021/01/19 00:41:27;;;;;;;5.80;2.60;;;2.50;83.10;;;;;;5024561;28;20053;-65
2021/01/19 00:43:52;;;;;;;3.30;2.60;;;2.50;82.80;;;;;;5017844;28;20025;-64
2021/01/19 00:46:18;;;;;;;4.57;3.05;;;2.50;82.90;;;;;;5020720;28;20821;-64
2021/01/19 00:48:44;;;;;;;4.75;2.80;;;2.50;83.00;;;;;;5016906;28;20109;-64
2021/01/19 00:51:09;;;;;;;5.90;2.45;;;2.50;82.90;;;;;;4999083;28;20055;-64
2021/01/19 00:53:35;;;;;;;4.35;2.45;;;2.50;82.80;;;;;;5016814;28;20668;-65
2021/01/19 00:56:00;;;;;;;3.03;2.38;;;2.50;82.70;;;;;;5025038;28;20030;-65
2021/01/19 00:58:26;;;;;;;4.75;2.63;;;2.50;82.90;;;;;;5033541;28;20061;-65
2021/01/19 01:00:51;;;;;;;3.88;2.25;;;2.50;82.80;;;;;;5032055;28;20175;-65
2021/01/19 01:03:17;;;;;;;3.40;2.42;;;2.50;82.80;;;;;;4998637;28;20173;-64
2021/01/19 01:05:42;;;;;;;5.25;2.33;;;2.50;82.70;;;;;;5010223;28;20025;-64
2021/01/19 01:08:08;;;;;;;5.82;2.58;;;2.50;82.80;;;;;;5031438;28;20105;-64
2021/01/19 01:10:34;;;;;;;3.55;2.10;;;2.50;82.50;;;;;;5016859;28;20030;-65
2021/01/19 01:12:59;;;;;;;8.07;2.60;;;2.50;82.40;;;;;;4999310;28;20033;-65
2021/01/19 01:15:34;;;;;;;4.53;2.40;;;2.50;82.50;;;;;;4996498;28;20049;-65
2021/01/19 01:18:01;;;;;;;5.07;2.50;;;2.50;82.40;;;;;;5016219;28;20029;-65
2021/01/19 01:20:26;;;;;;;3.05;2.22;;;2.50;82.30;;;;;;5015988;28;20084;-64
2021/01/19 01:22:52;;;;;;;3.33;2.10;;;2.50;82.40;;;;;;5015593;28;20033;-65
2021/01/19 01:25:19;;;;;;;4.45;2.20;;;2.50;82.50;;;;;;5019686;28;20030;-64
2021/01/19 01:27:46;;;;;;;5.47;2.35;;;2.50;82.70;;;;;;5018121;28;20727;-64
2021/01/19 01:30:13;;;;;;;7.50;2.22;;;2.50;82.60;;;;;;5018590;28;20115;-64
2021/01/19 01:32:44;;;;;;;4.53;2.55;;;2.50;82.50;;;;;;5017272;28;20044;-65
2021/01/19 01:35:11;;;;;;;2.17;1.98;;;2.50;82.60;;;;;;5016903;28;20013;-65
2021/01/19 01:37:46;;;;;;;5.32;2.15;;;2.50;82.20;;;;;;5017953;28;20052;-65
2021/01/19 01:40:15;;;;;;;3.30;2.03;;;2.50;82.40;;;;;;5005383;28;20029;-64
2021/01/19 01:42:40;;;;;;;3.95;2.30;;;2.50;82.40;;;;;;5017162;28;20037;-65
2021/01/19 01:45:06;;;;;;;3.85;2.33;;;2.50;82.30;;;;;;5034723;28;20027;-64
2021/01/19 01:47:32;;;;;;;3.80;2.00;;;2.50;82.30;;;;;;5017688;28;20025;-65
2021/01/19 01:49:58;;;;;;;3.80;2.20;;;2.50;82.00;;;;;;5033500;28;20030;-65
2021/01/19 01:52:27;;;;;;;5.68;2.35;;;2.40;82.20;;;;;;5034350;28;20497;-64
2021/01/19 01:54:53;;;;;;;2.88;2.10;;;2.40;82.10;;;;;;5033165;28;20022;-64
2021/01/19 01:57:19;;;;;;;4.78;2.08;;;2.50;82.10;;;;;;5034477;28;20108;-65
2021/01/19 01:59:49;;;;;;;4.65;2.22;;;2.40;82.10;;;;;;5016478;28;20107;-66
2021/01/19 02:02:16;;;;;;;2.25;2.05;;;2.40;82.00;;;;;;5027165;28;20022;-65
2021/01/19 02:04:42;;;;;;;2.40;2.00;;;2.40;82.00;;;;;;5018850;28;20021;-65
2021/01/19 02:07:34;;;;;;;3.00;2.30;;;2.40;82.10;;;;;;5033424;28;20488;-65
2021/01/19 02:10:09;;;;;;;3.97;1.95;;;2.40;81.90;;;;;;5017229;28;20021;-65
2021/01/19 02:12:43;;;;;;;4.97;2.30;;;2.40;81.80;;;;;;5033741;28;20036;-65
2021/01/19 02:15:09;;;;;;;2.28;1.80;;;2.40;81.80;;;;;;5015919;28;20044;-65
2021/01/19 02:17:57;;;;;;;2.40;2.20;;;2.40;82.00;;;;;;4998695;28;20454;-65
2021/01/19 02:20:58;;;;;;;6.22;2.30;;;2.30;81.50;;;;;;5030898;28;20030;-65
2021/01/19 02:23:38;;;;;;;2.85;2.13;;;2.30;81.40;;;;;;5012757;28;20037;-66
2021/01/19 02:26:28;;;;;;;3.20;2.47;;;2.30;81.40;;;;;;5013578;28;20061;-66
2021/01/19 02:28:58;;;;;;;6.13;2.30;;;2.30;81.60;;;;;;4998101;28;20394;-66
2021/01/19 02:31:42;;;;;;;5.50;2.50;;;2.30;81.60;;;;;;5015296;28;20036;-65
2021/01/19 02:34:22;;;;;;;2.60;2.13;;;2.30;81.60;;;;;;5000370;28;20025;-65
2021/01/19 02:36:50;;;;;;;4.45;2.47;;;2.30;81.70;;;;;;5032821;28;20029;-66
2021/01/19 02:39:38;;;;;;;2.58;2.10;;;2.30;81.50;;;;;;5028634;28;20381;-66
2021/01/19 02:42:08;;;;;;;4.22;2.28;;;2.30;81.60;;;;;;5013866;28;20026;-66
2021/01/19 02:44:38;;;;;;;6.30;2.30;;;2.30;81.80;;;;;;5012107;28;20022;-66
2021/01/19 02:47:04;;;;;;;5.72;2.70;;;2.30;81.60;;;;;;4997418;28;20053;-65
2021/01/19 02:49:30;;;;;;;4.38;2.15;;;2.30;81.40;;;;;;5024440;28;20025;-65
2021/01/19 02:51:58;;;;;;;5.80;2.38;;;2.40;81.40;;;;;;5014722;28;20032;-65
2021/01/19 02:54:24;;;;;;;4.50;2.17;;;2.40;81.50;;;;;;5016340;28;20032;-65
2021/01/19 02:57:13;;;;;;;4.93;2.20;;;2.30;81.40;;;;;;5034772;28;20493;-65
2021/01/19 02:59:42;;;;;;;4.35;2.08;;;2.40;81.50;;;;;;5015717;28;20518;-65
2021/01/19 03:02:18;;;;;;;4.95;1.83;;;2.30;81.30;;;;;;5015202;28;20022;-65
2021/01/19 03:04:44;;;;;;;4.38;1.90;;;2.30;81.30;;;;;;5019112;28;20028;-67
2021/01/19 03:07:10;;;;;;;4.50;2.17;;;2.30;81.40;;;;;;5033717;28;20164;-64
2021/01/19 03:09:39;;;;;;;3.50;1.77;;;2.30;81.60;;;;;;5034350;28;20094;-65
2021/01/19 03:12:11;;;;;;;5.15;2.08;;;2.30;81.40;;;;;;5030671;28;20491;-66
2021/01/19 03:14:37;;;;;;;3.85;2.10;;;2.30;81.80;;;;;;5014468;28;20538;-65
2021/01/19 03:17:08;;;;;;;2.63;1.90;;;2.30;81.30;;;;;;5021186;28;20067;-66
2021/01/19 03:19:52;;;;;;;3.72;2.00;;;2.30;81.10;;;;;;5034515;28;20028;-66
2021/01/19 03:22:17;;;;;;;2.70;1.80;;;2.30;81.40;;;;;;5033587;28;20054;-66
2021/01/19 03:24:43;;;;;;;5.13;2.00;;;2.30;81.60;;;;;;5015467;28;20029;-65
2021/01/19 03:27:09;;;;;;;3.45;2.00;;;2.40;81.50;;;;;;5034450;28;20152;-65
2021/01/19 03:29:35;;;;;;;3.58;2.00;;;2.30;81.40;;;;;;5017663;28;20484;-65
2021/01/19 03:32:01;;;;;;;6.13;2.13;;;2.30;81.10;;;;;;4999094;28;20084;-65
2021/01/19 03:34:27;;;;;;;3.22;1.52;;;2.30;81.20;;;;;;5016480;28;20033;-65
2021/01/19 03:36:53;;;;;;;2.55;2.00;;;2.30;81.30;;;;;;5009669;28;20042;-64
2021/01/19 03:39:19;;;;;;;1.95;1.83;;;2.30;81.00;;;;;;5035507;28;20433;-66
2021/01/19 03:41:44;;;;;;;3.55;2.20;;;2.30;81.10;;;;;;5019664;28;20034;-65
2021/01/19 03:44:10;;;;;;;3.03;2.13;;;2.30;81.00;;;;;;4996686;28;20030;-65
2021/01/19 03:46:35;;;;;;;2.90;2.17;;;2.30;81.00;;;;;;5022338;28;20149;-65
2021/01/19 03:49:01;;;;;;;4.72;1.60;;;2.30;80.90;;;;;;5031193;28;20151;-64
2021/01/19 03:51:27;;;;;;;5.43;1.70;;;2.20;80.70;;;;;;5015149;28;20419;-65
2021/01/19 03:53:53;;;;;;;6.00;2.15;;;2.20;80.80;;;;;;5012796;28;20130;-65
2021/01/19 03:58:51;;;;;;;2.75;2.20;;;2.20;80.70;;;;;;5065613;28;20048;-65
2021/01/19 04:01:17;;;;;;;3.35;1.75;;;2.20;80.80;;;;;;5068301;28;20523;-65
2021/01/19 04:03:43;;;;;;;6.30;2.15;;;2.20;80.70;;;;;;5069637;28;20103;-66
2021/01/19 04:06:09;;;;;;;5.55;2.13;;;2.20;80.80;;;;;;5068975;28;20093;-66
2021/01/19 04:08:36;;;;;;;2.53;1.63;;;2.20;80.50;;;;;;5069274;28;20112;-66
2021/01/19 04:11:02;;;;;;;3.78;1.90;;;2.20;80.20;;;;;;5069080;28;20031;-63
2021/01/19 04:13:28;;;;;;;1.75;1.65;;;2.20;80.90;;;;;;5052201;28;20033;-65
2021/01/19 04:15:53;;;;;;;2.08;1.60;;;2.20;80.40;;;;;;5054215;28;20047;-66
2021/01/19 04:18:19;;;;;;;6.13;2.03;;;2.20;80.10;;;;;;5073167;28;20071;-64
2021/01/19 04:20:45;;;;;;;5.13;2.33;;;2.20;80.30;;;;;;5072629;28;20032;-65
2021/01/19 04:23:16;;;;;;;2.65;1.70;;;2.20;79.90;;;;;;5073173;28;20024;-64
2021/01/19 04:25:47;;;;;;;2.23;1.60;;;2.20;79.60;;;;;;5072461;28;20430;-65
2021/01/19 04:28:13;;;;;;;2.33;1.80;;;2.10;79.60;;;;;;5072910;28;20066;-65
2021/01/19 04:30:39;;;;;;;2.58;1.80;;;2.10;79.60;;;;;;5072508;28;20032;-65
2021/01/19 04:33:05;;;;;;;4.00;1.95;;;2.10;79.50;;;;;;5070413;28;20484;-64
2021/01/19 04:35:31;;;;;;;2.05;1.65;;;2.10;80.00;;;;;;5071893;28;20032;-65
2021/01/19 04:37:56;;;;;;;3.42;1.92;;;2.10;80.10;;;;;;5072537;28;20161;-65
2021/01/19 04:40:22;;;;;;;4.13;1.92;;;2.00;79.90;;;;;;5054945;28;20067;-66
2021/01/19 04:42:48;;;;;;;3.05;1.92;;;2.00;80.00;;;;;;5071827;28;20044;-65
2021/01/19 04:45:14;;;;;;;3.88;2.00;;;2.00;80.00;;;;;;5071874;28;20032;-65
2021/01/19 04:47:40;;;;;;;3.22;1.75;;;2.00;80.30;;;;;;5072485;28;20036;-66
2021/01/19 04:50:11;;;;;;;3.65;1.60;;;2.00;80.10;;;;;;5072708;28;20351;-66
2021/01/19 04:52:44;;;;;;;3.03;1.65;;;2.00;80.10;;;;;;5071790;28;20040;-65
2021/01/19 04:55:11;;;;;;;2.63;2.10;;;2.00;80.10;;;;;;5053907;28;20025;-66
2021/01/19 04:57:39;;;;;;;4.72;1.70;;;2.00;80.10;;;;;;5069581;28;20028;-63
2021/01/19 05:00:06;;;;;;;2.80;1.88;;;1.90;80.00;;;;;;5071908;28;20421;-66
2021/01/19 05:02:46;;;;;;;1.67;1.50;;;2.00;80.10;;;;;;5053903;28;20376;-66
2021/01/19 05:05:37;;;;;;;3.65;1.58;;;2.00;80.40;;;;;;5071338;28;20025;-66
2021/01/19 05:08:02;;;;;;;3.17;1.85;;;2.00;80.40;;;;;;5072451;28;20025;-66
2021/01/19 05:10:38;;;;;;;3.92;1.67;;;2.00;80.20;;;;;;5054333;28;20021;-66
2021/01/19 05:13:14;;;;;;;2.42;1.95;;;2.00;80.00;;;;;;5072547;28;20044;-63
2021/01/19 05:15:43;;;;;;;4.55;1.90;;;2.00;80.30;;;;;;5071278;28;20032;-64
2021/01/19 05:18:16;;;;;;;2.60;1.85;;;2.00;80.10;;;;;;5072451;28;20480;-65
2021/01/19 05:20:50;;;;;;;3.05;2.15;;;2.00;80.20;;;;;;5071207;28;20562;-63
2021/01/19 05:23:23;;;;;;;3.50;1.88;;;2.00;80.00;;;;;;5053760;28;20028;-65
2021/01/19 05:25:51;;;;;;;5.47;2.00;;;2.00;80.30;;;;;;5069832;28;20036;-65
2021/01/19 05:28:17;;;;;;;3.25;2.15;;;2.00;80.50;;;;;;5071130;28;20027;-65
2021/01/19 05:30:50;;;;;;;2.72;2.10;;;2.00;80.30;;;;;;5071372;28;20107;-65
2021/01/19 05:33:15;;;;;;;3.65;1.75;;;1.90;80.30;;;;;;5071204;28;20031;-66
2021/01/19 05:35:41;;;;;;;2.08;1.77;;;1.90;80.40;;;;;;5070396;28;20016;-66
2021/01/19 05:38:06;;;;;;;4.93;2.22;;;2.00;80.40;;;;;;5071459;28;20032;-66
2021/01/19 05:40:42;;;;;;;2.13;1.92;;;1.90;80.30;;;;;;5053356;28;20044;-63
2021/01/19 05:43:10;;;;;;;4.43;1.98;;;1.90;80.40;;;;;;5071750;28;20357;-66
2021/01/19 05:45:35;;;;;;;3.60;2.17;;;1.90;80.40;;;;;;5070487;28;20443;-65
2021/01/19 05:48:13;;;;;;;3.60;1.98;;;1.90;80.40;;;;;;5071321;28;20025;-65
2021/01/19 05:50:39;;;;;;;4.40;1.80;;;1.90;80.60;;;;;;5053002;28;20135;-64
2021/01/19 05:53:15;;;;;;;3.17;1.75;;;1.90;80.60;;;;;;5071329;28;20128;-65
2021/01/19 05:55:45;;;;;;;6.22;2.22;;;1.90;80.80;;;;;;5070373;28;20033;-66
2021/01/19 05:58:15;;;;;;;3.28;2.42;;;1.90;80.70;;;;;;5068818;28;20073;-65
2021/01/19 06:00:42;;;;;;;6.43;2.40;;;1.90;80.50;;;;;;5070455;28;20105;-66
2021/01/19 06:03:28;;;;;;;4.25;1.70;;;1.90;80.60;;;;;;5071191;28;20029;-65
2021/01/19 06:05:53;;;;;;;3.47;2.10;;;1.90;80.60;;;;;;5051981;28;20174;-65
2021/01/19 06:08:23;;;;;;;6.85;3.45;;;1.90;80.70;;;;;;5071199;28;20547;-64
2021/01/19 06:10:49;;;;;;;2.75;2.20;;;1.90;80.70;;;;;;5070730;28;20388;-64
2021/01/19 06:13:17;;;;;;;4.90;2.40;;;1.90;80.70;;;;;;5070629;28;20051;-66
2021/01/19 06:15:43;;;;;;;3.67;2.25;;;1.90;80.80;;;;;;5070157;28;20118;-65
2021/01/19 06:18:08;;;;;;;2.58;2.00;;;1.90;80.90;;;;;;5070541;28;20030;-65
2021/01/19 06:20:42;;;;;;;5.47;2.58;;;1.90;80.60;;;;;;5070834;28;20029;-65
2021/01/19 06:23:09;;;;;;;6.88;2.30;;;1.90;80.70;;;;;;5070975;28;20181;-64
2021/01/19 06:25:36;;;;;;;10.05;2.42;;;1.90;80.60;;;;;;5064174;28;20032;-66
2021/01/19 06:28:11;;;;;;;3.60;2.22;;;1.90;80.80;;;;;;5063138;28;20036;-66
2021/01/19 06:30:37;;;;;;;2.78;2.20;;;1.90;80.50;;;;;;5070282;28;20033;-65
2021/01/19 06:33:03;;;;;;;5.97;2.40;;;1.80;80.70;;;;;;5070159;28;20480;-65
2021/01/19 06:35:39;;;;;;;5.30;2.25;;;1.80;80.40;;;;;;5069680;28;20476;-66
2021/01/19 06:38:06;;;;;;;3.10;1.92;;;1.80;80.50;;;;;;5070159;28;20538;-65
2021/01/19 06:40:34;;;;;;;3.95;2.30;;;1.80;80.30;;;;;;5070364;28;20044;-66
2021/01/19 06:43:04;;;;;;;6.75;2.75;;;1.80;80.50;;;;;;5070389;28;20075;-65
2021/01/19 06:45:31;;;;;;;3.40;2.30;;;1.80;80.40;;;;;;5069565;28;20039;-66
2021/01/19 06:47:59;;;;;;;5.35;2.10;;;1.80;80.50;;;;;;5070691;28;20480;-65
2021/01/19 06:50:27;;;;;;;5.15;2.22;;;1.80;80.70;;;;;;5070150;28;20460;-64
2021/01/19 06:53:16;;;;;;;3.08;2.13;;;1.80;80.80;;;;;;5069949;28;20651;-65
2021/01/19 06:56:03;;;;;;;4.90;2.40;;;1.80;81.00;;;;;;5062458;28;20031;-65
2021/01/19 06:58:56;;;;;;;8.57;2.80;;;1.80;80.70;;;;;;5051738;28;20643;-66
2021/01/19 07:01:28;;;;;;;12.80;6.25;;;1.80;80.80;;;;;;5070332;28;20033;-65
2021/01/19 07:04:23;;;;;;;4.45;2.20;;;1.80;80.90;;;;;;5069410;28;20392;-65
2021/01/19 07:07:18;;;;;;;3.20;1.88;;;1.80;81.00;;;;;;5070484;28;20040;-65
2021/01/19 07:10:04;;;;;;;3.53;2.17;;;1.90;80.60;;;;;;5070110;28;20032;-65
2021/01/19 07:13:07;;;;;;;2.83;2.08;;;1.80;80.40;;;;;;5069585;28;20025;-65
2021/01/19 07:15:55;;;;;;;2.10;1.90;;;1.80;80.60;;;;;;5069548;28;20024;-64
2021/01/19 07:18:42;;;;;;;3.20;2.10;;;1.80;80.50;;;;;;5070111;28;20021;-65
2021/01/19 07:21:10;;;;;;;2.97;1.92;;;1.80;80.40;;;;;;5051948;28;20039;-65
2021/01/19 07:23:45;;;;;;;2.50;1.77;;;1.70;80.10;;;;;;5070105;28;20031;-65
2021/01/19 07:26:18;;;;;;;4.45;1.98;;;1.70;80.30;;;;;;5070053;28;20021;-65
2021/01/19 07:28:44;;;;;;;5.80;2.40;;;1.70;80.30;;;;;;5050304;28;20043;-65
2021/01/19 07:31:10;;;;;;;4.03;2.30;;;1.70;80.50;;;;;;5070455;28;20024;-67
2021/01/19 07:33:39;;;;;;;2.63;2.10;;;1.70;80.00;;;;;;5069185;28;20048;-66
2021/01/19 07:36:05;;;;;;;8.50;2.17;;;1.70;80.10;;;;;;5069655;28;20029;-67
2021/01/19 07:38:31;;;;;;;4.10;2.25;;;1.70;80.20;;;;;;5068741;28;20146;-65
2021/01/19 07:40:57;;;;;;;3.50;2.20;;;1.70;80.50;;;;;;5069932;28;20025;-65
2021/01/19 07:43:24;;;;;;;4.65;2.08;;;1.80;80.50;;;;;;5069567;28;20024;-64
2021/01/19 07:45:54;;;;;;;8.23;2.40;;;1.80;80.30;;;;;;5068684;28;20017;-65
2021/01/19 07:48:33;;;;;;;5.45;2.13;;;1.80;80.20;;;;;;5070512;28;20076;-65
2021/01/19 07:51:17;;;;;;;4.57;2.08;;;1.80;80.30;;;;;;5073544;28;20028;-65
2021/01/19 07:53:51;;;;;;;4.45;2.20;;;1.80;80.30;;;;;;5073627;28;20037;-65
2021/01/19 07:56:27;;;;;;;3.67;2.25;;;1.90;80.20;;;;;;5073351;28;20515;-65
2021/01/19 07:58:54;;;;;;;4.13;2.22;;;1.90;79.90;;;;;;5073194;28;20039;-65
2021/01/19 08:01:24;;;;;;;5.97;3.30;;;1.90;79.90;;;;;;5073236;28;20063;-65
2021/01/19 08:03:50;;;;;;;5.72;2.22;;;1.90;79.70;;;;;;5072911;28;20067;-65
2021/01/19 08:06:16;;;;;;;3.70;2.60;;;1.90;79.80;;;;;;5073088;28;20040;-65
2021/01/19 08:08:41;;;;;;;4.00;2.38;;;1.90;79.70;;;;;;5073516;28;20511;-66
2021/01/19 08:11:19;;;;;;;5.07;2.92;;;1.90;79.90;;;;;;5073067;28;20028;-65
2021/01/19 08:13:46;;;;;;;3.28;2.17;;;1.90;79.90;;;;;;5073171;28;20036;-66
2021/01/19 08:16:26;;;;;;;3.08;1.95;;;1.90;80.00;;;;;;5066620;28;20016;-65
2021/01/19 08:19:18;;;;;;;4.10;2.45;;;1.90;80.00;;;;;;5072102;28;20012;-66
2021/01/19 08:21:53;;;;;;;4.72;2.97;;;1.90;79.70;;;;;;5054403;28;20123;-64
2021/01/19 08:24:20;;;;;;;6.03;3.20;;;2.00;80.00;;;;;;5071762;28;20058;-65
2021/01/19 08:26:46;;;;;;;5.85;3.17;;;2.00;79.80;;;;;;5053611;28;20151;-64
2021/01/19 08:29:12;;;;;;;8.77;2.97;;;2.00;79.70;;;;;;5072783;28;20413;-66
2021/01/19 08:31:37;;;;;;;5.90;2.05;;;2.00;79.90;;;;;;5069082;28;20169;-63
2021/01/19 08:34:06;;;;;;;2.33;1.85;;;2.00;79.40;;;;;;5071604;28;20452;-63
2021/01/19 08:36:33;;;;;;;4.07;2.03;;;2.00;79.60;;;;;;5071512;28;20027;-65
2021/01/19 08:39:00;;;;;;;4.72;1.90;;;2.10;79.50;;;;;;5063724;28;20364;-64
2021/01/19 08:41:27;;;;;;;2.55;1.70;;;2.10;79.20;;;;;;5070516;28;20020;-65
2021/01/19 08:44:00;;;;;;;3.75;2.15;;;2.10;79.30;;;;;;5070152;28;20544;-64
2021/01/19 08:46:29;;;;;;;2.55;2.00;;;2.10;79.30;;;;;;5072771;28;20040;-64
2021/01/19 08:49:00;;;;;;;5.65;2.22;;;2.20;79.20;;;;;;5061688;28;20078;-64
2021/01/19 08:51:27;;;;;;;2.83;1.77;;;2.20;78.80;;;;;;5064398;28;20032;-65
2021/01/19 08:53:53;;;;;;;7.30;2.10;;;2.20;78.90;;;;;;5071531;28;20412;-64
2021/01/19 08:56:20;;;;;;;3.05;2.15;;;2.30;79.40;;;;;;5072292;28;20054;-64
2021/01/19 08:58:47;;;;;;;6.53;1.85;;;2.30;79.10;;;;;;5054163;28;20029;-66
2021/01/19 09:01:13;;;;;;;4.07;1.90;;;2.40;78.70;;;;;;5053867;28;20028;-65
2021/01/19 09:03:39;;;;;;;4.45;2.05;;;2.40;78.70;;;;;;5072391;28;20035;-64
2021/01/19 09:06:12;;;;;;;3.33;2.10;;;2.40;78.50;;;;;;5071040;28;20025;-64
2021/01/19 09:08:40;;;;;;;;;;;2.40;78.10;;;;;;5054892;28;20518;-65
2021/01/19 09:11:08;;;;;;;3.15;1.55;;;2.40;77.90;;;;;;5067024;28;20276;-64
2021/01/19 09:13:39;;;;;;;4.05;1.90;;;2.50;78.00;;;;;;5065613;28;20108;-64
2021/01/19 09:16:07;;;;;;;7.00;2.17;;;2.40;78.10;;;;;;5073680;28;20484;-64
2021/01/19 09:18:33;;;;;;;4.95;1.80;;;2.40;78.00;;;;;;5079191;28;20074;-65
2021/01/19 09:21:09;;;;;;;5.63;2.35;;;2.40;78.00;;;;;;5070366;28;20025;-66
2021/01/19 09:23:36;;;;;;;2.67;1.65;;;2.40;78.00;;;;;;5071299;28;20437;-65
2021/01/19 09:26:07;;;;;;;5.47;2.00;;;2.40;78.00;;;;;;5052694;28;20024;-65
2021/01/19 09:28:36;;;;;;;3.40;1.80;;;2.40;77.90;;;;;;5053517;28;20028;-65
2021/01/19 09:31:20;;;;;;;12.85;4.72;;;2.40;78.00;;;;;;5070709;28;20021;-65
2021/01/19 09:33:48;;;;;;;3.70;2.33;;;2.50;78.40;;;;;;5070026;28;20527;-65
2021/01/19 09:36:15;;;;;;;4.60;1.80;;;2.50;78.40;;;;;;5052558;28;20028;-65
2021/01/19 09:38:42;;;;;;;2.83;1.50;;;2.60;78.60;;;;;;5071248;28;20040;-64
2021/01/19 09:41:12;;;;;;;5.18;1.70;;;2.60;77.80;;;;;;5071186;28;20435;-65
2021/01/19 09:43:39;;;;;;;3.08;1.73;;;2.70;77.70;;;;;;5070453;28;20060;-64
2021/01/19 09:46:08;;;;;;;6.00;2.00;;;2.70;77.70;;;;;;5069793;28;20036;-64
2021/01/19 09:48:35;;;;;;;4.07;1.83;;;2.80;77.70;;;;;;5053049;28;20032;-64
2021/01/19 09:51:03;;;;;;;6.68;1.90;;;2.80;77.60;;;;;;5069969;28;20028;-64
2021/01/19 09:53:32;;;;;;;6.53;2.00;;;2.80;77.80;;;;;;5069265;28;20024;-64
2021/01/19 09:56:00;;;;;;;2.70;1.60;;;2.80;77.60;;;;;;5068515;28;20575;-65
2021/01/19 09:58:26;;;;;;;5.70;1.80;;;2.80;77.50;;;;;;5064120;22;20119;-70
2021/01/19 10:00:52;;;;;;;4.25;1.40;;;2.90;77.90;;;;;;5040390;28;20049;-69
2021/01/19 10:03:20;;;;;;;3.63;1.88;;;2.90;77.50;;;;;;5041879;28;20037;-69
2021/01/19 10:06:00;;;;;;;6.45;1.80;;;2.90;77.90;;;;;;5045362;28;20052;-70
2021/01/19 10:08:26;;;;;;;5.05;1.92;;;3.00;77.80;;;;;;5050189;28;20025;-70
2021/01/19 10:10:52;;;;;;;2.58;1.70;;;3.00;77.70;;;;;;5050158;28;20469;-70
2021/01/19 10:13:27;;;;;;;6.22;1.80;;;3.10;77.40;;;;;;5049855;28;20416;-70
2021/01/19 10:16:01;;;;;;;3.53;1.80;;;3.10;77.40;;;;;;5031972;28;20103;-70
2021/01/19 10:18:27;;;;;;;5.32;2.13;;;3.10;77.00;;;;;;5050070;28;20025;-70
2021/01/19 10:20:52;;;;;;;4.57;1.80;;;3.10;76.80;;;;;;5044459;28;20037;-70
2021/01/19 10:23:29;;;;;;;4.68;1.95;;;3.10;76.90;;;;;;5043729;28;20126;-70
2021/01/19 10:26:07;;;;;;;8.98;2.33;;;3.20;77.00;;;;;;5047588;28;20032;-69
2021/01/19 10:28:39;;;;;;;3.80;1.83;;;3.20;76.90;;;;;;5042701;28;20034;-70
2021/01/19 10:31:19;;;;;;;6.07;2.40;;;3.30;76.80;;;;;;5040318;28;20484;-70
2021/01/19 10:34:03;;;;;;;4.28;1.95;;;3.30;77.00;;;;;;5034471;28;20461;-69
2021/01/19 10:36:32;;;;;;;5.95;1.90;;;3.40;76.80;;;;;;5042983;28;20107;-70
2021/01/19 10:39:07;;;;;;;3.58;1.50;;;3.40;76.70;;;;;;5044098;28;20017;-70
2021/01/19 10:41:32;;;;;;;2.92;1.80;;;3.40;76.40;;;;;;5049684;28;20021;-70
2021/01/19 10:43:58;;;;;;;3.78;2.25;;;3.40;76.70;;;;;;5042584;28;20032;-69
2021/01/19 10:46:26;;;;;;;6.88;2.10;;;3.40;76.80;;;;;;5049118;28;20032;-70
2021/01/19 10:49:15;;;;;;;8.13;2.65;;;3.40;76.80;;;;;;5070405;28;20405;-69
2021/01/19 10:51:42;;;;;;;6.22;2.17;;;3.40;76.60;;;;;;5021741;28;20037;-70
2021/01/19 10:54:07;;;;;;;5.35;2.03;;;3.40;76.50;;;;;;5044774;28;20064;-70
2021/01/19 10:56:34;;;;;;;4.53;2.15;;;3.40;76.40;;;;;;5061227;28;20017;-70
2021/01/19 10:59:00;;;;;;;2.75;2.00;;;3.30;76.20;;;;;;5036981;28;20392;-70
2021/01/19 11:01:26;;;;;;;6.38;2.60;;;3.30;76.90;;;;;;5055456;28;20021;-70
2021/01/19 11:03:52;;;;;;;8.10;2.80;;;3.20;76.50;;;;;;5048970;28;20021;-69
2021/01/19 11:06:18;;;;;;;4.70;2.17;;;3.20;76.60;;;;;;5040053;28;20025;-70
2021/01/19 11:08:43;;;;;;;8.52;2.42;;;3.10;76.90;;;;;;5049669;28;20060;-70
2021/01/19 11:11:13;;;;;;;4.15;2.47;;;3.10;77.50;;;;;;5028880;28;20028;-70
2021/01/19 11:13:39;;;;;;;6.75;2.63;;;3.10;77.60;;;;;;5039537;28;20029;-69
2021/01/19 11:16:05;;;;;;;7.07;2.40;;;3.10;77.60;;;;;;5040695;28;20036;-70
2021/01/19 11:18:31;;;;;;;2.85;2.25;;;3.00;77.50;;;;;;5056182;28;20102;-70
2021/01/19 11:20:57;;;;;;;5.57;2.42;;;3.00;77.90;;;;;;5043774;28;20105;-70
2021/01/19 11:23:22;;;;;;;6.88;2.50;;;3.00;78.10;;;;;;5021477;28;20543;-69
2021/01/19 11:25:48;;;;;;;6.10;2.65;;;3.00;78.10;;;;;;5073278;28;20058;-70
2021/01/19 11:28:14;;;;;;;5.53;2.67;;;3.00;78.30;;;;;;5051259;28;20033;-70
2021/01/19 11:30:40;;;;;;;6.68;2.75;;;3.00;78.50;;;;;;5048330;28;20043;-70
2021/01/19 11:33:05;;;;;;;4.22;2.40;;;3.00;78.50;;;;;;5053622;28;20124;-70
2021/01/19 11:35:35;;;;;;;4.35;2.83;;;3.00;78.50;;;;;;5050232;28;20564;-69
2021/01/19 11:38:04;;;;;;;7.50;2.25;;;3.00;78.50;;;;;;5048281;28;20075;-71
2021/01/19 11:40:30;;;;;;;3.35;2.25;;;3.00;78.50;;;;;;5044220;28;20086;-69
2021/01/19 11:42:56;;;;;;;7.60;3.17;;;3.00;78.50;;;;;;5061474;28;20029;-69
2021/01/19 11:45:21;;;;;;;3.67;2.45;;;3.00;78.50;;;;;;5049163;28;20469;-69
2021/01/19 11:47:47;;;;;;;5.60;2.80;;;2.90;78.70;;;;;;5035859;28;20041;-70
2021/01/19 11:50:13;;;;;;;6.20;2.60;;;3.00;78.80;;;;;;5049960;28;20107;-71
2021/01/19 11:52:39;;;;;;;5.05;3.10;;;3.00;78.60;;;;;;5044451;28;20022;-70
2021/01/19 11:55:06;;;;;;;4.18;2.78;;;3.00;78.60;;;;;;5043385;28;20060;-70
2021/01/19 11:57:31;;;;;;;6.20;2.35;;;3.00;78.70;;;;;;5051798;28;20048;-69
2021/01/19 11:59:57;;;;;;;5.80;2.75;;;2.90;78.90;;;;;;5047119;28;20033;-70
2021/01/19 12:02:23;;;;;;;4.00;2.58;;;2.90;79.10;;;;;;5049668;28;20068;-70
2021/01/19 12:04:48;;;;;;;6.55;2.65;;;2.80;79.20;;;;;;5052494;28;20028;-70
2021/01/19 12:07:14;;;;;;;5.97;2.42;;;2.80;79.30;;;;;;5036717;28;20063;-70
2021/01/19 12:09:40;;;;;;;5.15;2.45;;;2.80;79.50;;;;;;5033511;28;20036;-71
2021/01/19 12:12:06;;;;;;;6.93;4.20;;;2.80;79.70;;;;;;5045841;28;20037;-70
2021/01/19 12:14:31;;;;;;;7.20;2.95;;;2.80;80.00;;;;;;5052354;28;20499;-70
2021/01/19 12:16:58;;;;;;;7.47;3.17;;;2.80;80.00;;;;;;5052564;28;20108;-70
2021/01/19 12:19:25;;;;;;;6.80;2.53;;;2.80;79.70;;;;;;5049135;28;20029;-71
2021/01/19 12:21:55;;;;;;;8.55;2.58;;;2.80;79.80;;;;;;5043023;28;20021;-70
2021/01/19 12:24:21;;;;;;;5.75;3.50;;;2.80;79.90;;;;;;5065033;28;20028;-70
2021/01/19 12:26:51;;;;;;;5.85;2.60;;;2.80;79.80;;;;;;5043512;28;20035;-70
2021/01/19 12:29:19;;;;;;;8.88;3.38;;;2.80;79.90;;;;;;5051017;28;20093;-70
2021/01/19 12:31:45;;;;;;;7.60;3.20;;;2.80;80.00;;;;;;5052392;28;20036;-70
2021/01/19 12:34:11;;;;;;;4.95;2.88;;;2.70;80.20;;;;;;5048342;28;20034;-70
2021/01/19 12:36:36;;;;;;;4.88;2.67;;;2.70;80.50;;;;;;5043236;28;20538;-70
2021/01/19 12:39:03;;;;;;;5.05;2.70;;;2.80;80.50;;;;;;5051177;28;20718;-71
2021/01/19 12:41:29;;;;;;;8.52;3.00;;;2.80;80.50;;;;;;5049722;28;20523;-70
2021/01/19 12:43:55;;;;;;;6.20;2.60;;;2.80;80.30;;;;;;5018039;28;20041;-70
2021/01/19 12:46:21;;;;;;;5.75;2.78;;;2.80;80.30;;;;;;5033018;28;20026;-70
2021/01/19 12:48:46;;;;;;;7.07;2.92;;;2.90;80.20;;;;;;5037531;28;20025;-69
2021/01/19 12:51:16;;;;;;;5.25;2.60;;;3.00;80.30;;;;;;5052486;28;20110;-70
2021/01/19 12:53:43;;;;;;;4.63;2.42;;;3.00;80.30;;;;;;5051393;28;20484;-70
2021/01/19 12:56:13;;;;;;;7.13;2.80;;;3.00;80.30;;;;;;5052312;28;20521;-70
2021/01/19 12:58:40;;;;;;;8.75;2.70;;;3.10;80.20;;;;;;5046831;28;20026;-70
2021/01/19 13:01:07;;;;;;;5.65;2.95;;;3.10;80.10;;;;;;5040516;28;20037;-70
2021/01/19 13:03:33;;;;;;;5.85;2.78;;;3.20;80.10;;;;;;5033774;28;20036;-70
2021/01/19 13:05:59;;;;;;;7.07;3.03;;;3.20;79.90;;;;;;5048399;28;20436;-69
2021/01/19 13:08:25;;;;;;;8.95;2.97;;;3.20;79.80;;;;;;5050938;28;20040;-69
2021/01/19 13:10:51;;;;;;;4.90;3.10;;;3.30;79.80;;;;;;5037567;28;20025;-69